sensor_id;sensor_type;location;lat;lon;timestamp;temperature;humidity
27823;DHT22;29019;47.630;8.262;2022-07-04T00:01:14;26.00;44.10
27823;DHT22;29019;47.630;8.262;2022-07-04T00:05:15;26.00;44.20
27823;DHT22;29019;47.630;8.262;2022-07-04T00:09:16;26.00;44.20
27823;DHT22;29019;47.630;8.262;2022-07-04T00:13:16;26.00;44.20
27823;DHT22;29019;47.630;8.262;2022-07-04T00:17:17;26.00;44.30
27823;DHT22;29019;47.630;8.262;2022-07-04T00:21:17;25.90;44.30
27823;DHT22;29019;47.630;8.262;2022-07-04T00:25:18;26.00;44.30
27823;DHT22;29019;47.630;8.262;2022-07-04T00:29:18;25.90;44.30
27823;DHT22;29019;47.630;8.262;2022-07-04T00:33:19;25.90;44.30
27823;DHT22;29019;47.630;8.262;2022-07-04T00:37:19;25.90;44.30
27823;DHT22;29019;47.630;8.262;2022-07-04T00:41:20;25.90;44.30
27823;DHT22;29019;47.630;8.262;2022-07-04T00:45:20;25.90;44.30
27823;DHT22;29019;47.630;8.262;2022-07-04T00:49:21;25.90;44.30
27823;DHT22;29019;47.630;8.262;2022-07-04T00:53:21;25.90;44.30
27823;DHT22;29019;47.630;8.262;2022-07-04T00:57:23;25.90;44.30
27823;DHT22;29019;47.630;8.262;2022-07-04T01:01:23;25.90;44.30
27823;DHT22;29019;47.630;8.262;2022-07-04T01:05:24;25.90;44.40
27823;DHT22;29019;47.630;8.262;2022-07-04T01:09:24;25.90;44.40
27823;DHT22;29019;47.630;8.262;2022-07-04T01:13:25;25.90;44.40
27823;DHT22;29019;47.630;8.262;2022-07-04T01:17:25;25.90;44.40
27823;DHT22;29019;47.630;8.262;2022-07-04T01:21:25;25.90;44.40
27823;DHT22;29019;47.630;8.262;2022-07-04T01:25:26;25.90;44.40
27823;DHT22;29019;47.630;8.262;2022-07-04T01:29:26;25.90;44.50
27823;DHT22;29019;47.630;8.262;2022-07-04T01:33:27;25.90;44.50
27823;DHT22;29019;47.630;8.262;2022-07-04T01:37:27;25.80;44.50
27823;DHT22;29019;47.630;8.262;2022-07-04T01:41:32;25.80;44.50
27823;DHT22;29019;47.630;8.262;2022-07-04T01:45:33;25.80;44.50
27823;DHT22;29019;47.630;8.262;2022-07-04T01:49:39;25.80;44.50
27823;DHT22;29019;47.630;8.262;2022-07-04T01:53:40;25.80;44.50
27823;DHT22;29019;47.630;8.262;2022-07-04T01:57:40;25.80;44.60
27823;DHT22;29019;47.630;8.262;2022-07-04T02:01:41;25.80;44.60
27823;DHT22;29019;47.630;8.262;2022-07-04T02:05:44;25.80;44.60
27823;DHT22;29019;47.630;8.262;2022-07-04T02:09:44;25.80;44.60
27823;DHT22;29019;47.630;8.262;2022-07-04T02:13:45;25.80;44.70
27823;DHT22;29019;47.630;8.262;2022-07-04T02:17:45;25.80;44.70
27823;DHT22;29019;47.630;8.262;2022-07-04T02:21:46;25.80;44.70
27823;DHT22;29019;47.630;8.262;2022-07-04T02:25:46;25.80;44.70
27823;DHT22;29019;47.630;8.262;2022-07-04T02:29:46;25.70;44.70
27823;DHT22;29019;47.630;8.262;2022-07-04T02:33:47;25.80;44.70
27823;DHT22;29019;47.630;8.262;2022-07-04T02:37:48;25.70;44.70
27823;DHT22;29019;47.630;8.262;2022-07-04T02:41:49;25.70;44.70
27823;DHT22;29019;47.630;8.262;2022-07-04T02:45:49;25.70;44.80
27823;DHT22;29019;47.630;8.262;2022-07-04T02:49:49;25.70;44.80
27823;DHT22;29019;47.630;8.262;2022-07-04T02:53:50;25.70;44.80
27823;DHT22;29019;47.630;8.262;2022-07-04T02:57:50;25.70;44.80
27823;DHT22;29019;47.630;8.262;2022-07-04T03:01:51;25.70;44.80
27823;DHT22;29019;47.630;8.262;2022-07-04T03:05:51;25.70;44.90
27823;DHT22;29019;47.630;8.262;2022-07-04T03:09:52;25.70;44.90
27823;DHT22;29019;47.630;8.262;2022-07-04T03:13:53;25.60;44.80
27823;DHT22;29019;47.630;8.262;2022-07-04T03:17:53;25.60;44.90
27823;DHT22;29019;47.630;8.262;2022-07-04T03:21:53;25.60;44.90
27823;DHT22;29019;47.630;8.262;2022-07-04T03:25:54;25.60;44.90
27823;DHT22;29019;47.630;8.262;2022-07-04T03:29:54;25.60;44.90
27823;DHT22;29019;47.630;8.262;2022-07-04T03:33:55;25.60;44.90
27823;DHT22;29019;47.630;8.262;2022-07-04T03:37:56;25.60;45.00
27823;DHT22;29019;47.630;8.262;2022-07-04T03:41:56;25.60;45.00
27823;DHT22;29019;47.630;8.262;2022-07-04T03:45:57;25.60;45.00
27823;DHT22;29019;47.630;8.262;2022-07-04T03:49:57;25.60;45.10
27823;DHT22;29019;47.630;8.262;2022-07-04T03:53:58;25.60;45.10
27823;DHT22;29019;47.630;8.262;2022-07-04T03:57:58;25.60;45.20
27823;DHT22;29019;47.630;8.262;2022-07-04T04:01:59;25.60;45.20
27823;DHT22;29019;47.630;8.262;2022-07-04T04:05:59;25.60;45.20
27823;DHT22;29019;47.630;8.262;2022-07-04T04:09:59;25.60;45.20
27823;DHT22;29019;47.630;8.262;2022-07-04T04:14:00;25.60;45.30
27823;DHT22;29019;47.630;8.262;2022-07-04T04:18:00;25.50;45.20
27823;DHT22;29019;47.630;8.262;2022-07-04T04:22:01;25.50;45.30
27823;DHT22;29019;47.630;8.262;2022-07-04T04:26:01;25.60;45.30
27823;DHT22;29019;47.630;8.262;2022-07-04T04:30:02;25.50;45.30
27823;DHT22;29019;47.630;8.262;2022-07-04T04:34:03;25.50;45.30
27823;DHT22;29019;47.630;8.262;2022-07-04T04:38:03;25.50;45.30
27823;DHT22;29019;47.630;8.262;2022-07-04T04:42:04;25.60;45.40
27823;DHT22;29019;47.630;8.262;2022-07-04T04:46:04;25.60;45.40
27823;DHT22;29019;47.630;8.262;2022-07-04T04:50:05;25.50;45.40
27823;DHT22;29019;47.630;8.262;2022-07-04T04:54:06;25.50;45.40
27823;DHT22;29019;47.630;8.262;2022-07-04T04:58:06;25.50;45.40
27823;DHT22;29019;47.630;8.262;2022-07-04T05:02:07;25.50;45.40
27823;DHT22;29019;47.630;8.262;2022-07-04T05:06:07;25.50;45.50
27823;DHT22;29019;47.630;8.262;2022-07-04T05:10:08;25.50;45.50
27823;DHT22;29019;47.630;8.262;2022-07-04T05:14:09;25.50;45.50
27823;DHT22;29019;47.630;8.262;2022-07-04T05:18:10;25.50;45.50
27823;DHT22;29019;47.630;8.262;2022-07-04T05:22:10;25.40;45.50
27823;DHT22;29019;47.630;8.262;2022-07-04T05:26:11;25.50;45.60
27823;DHT22;29019;47.630;8.262;2022-07-04T05:30:11;25.50;45.60
27823;DHT22;29019;47.630;8.262;2022-07-04T05:34:12;25.50;46.10
27823;DHT22;29019;47.630;8.262;2022-07-04T05:38:12;25.50;45.60
27823;DHT22;29019;47.630;8.262;2022-07-04T05:42:12;25.50;45.60
27823;DHT22;29019;47.630;8.262;2022-07-04T05:46:13;25.40;45.60
27823;DHT22;29019;47.630;8.262;2022-07-04T05:50:13;25.40;45.60
27823;DHT22;29019;47.630;8.262;2022-07-04T05:54:14;25.40;45.60
27823;DHT22;29019;47.630;8.262;2022-07-04T05:58:14;25.40;45.60
27823;DHT22;29019;47.630;8.262;2022-07-04T06:02:16;25.40;45.60
27823;DHT22;29019;47.630;8.262;2022-07-04T06:06:16;25.40;45.60
27823;DHT22;29019;47.630;8.262;2022-07-04T06:10:17;25.40;45.60
27823;DHT22;29019;47.630;8.262;2022-07-04T06:14:17;25.40;45.60
27823;DHT22;29019;47.630;8.262;2022-07-04T06:18:18;25.40;45.70
27823;DHT22;29019;47.630;8.262;2022-07-04T06:22:18;25.40;45.70
27823;DHT22;29019;47.630;8.262;2022-07-04T06:26:19;25.40;45.70
27823;DHT22;29019;47.630;8.262;2022-07-04T06:30:19;25.40;45.70
27823;DHT22;29019;47.630;8.262;2022-07-04T06:34:20;25.40;45.70
27823;DHT22;29019;47.630;8.262;2022-07-04T06:38:39;25.40;45.70
27823;DHT22;29019;47.630;8.262;2022-07-04T06:42:39;25.40;45.70
27823;DHT22;29019;47.630;8.262;2022-07-04T06:46:40;25.40;45.70
27823;DHT22;29019;47.630;8.262;2022-07-04T06:50:40;25.40;45.70
27823;DHT22;29019;47.630;8.262;2022-07-04T06:54:41;25.40;45.80
27823;DHT22;29019;47.630;8.262;2022-07-04T06:58:41;25.40;45.70
27823;DHT22;29019;47.630;8.262;2022-07-04T07:02:42;25.40;45.70
27823;DHT22;29019;47.630;8.262;2022-07-04T07:06:42;25.40;45.70
27823;DHT22;29019;47.630;8.262;2022-07-04T07:10:43;25.40;45.60
27823;DHT22;29019;47.630;8.262;2022-07-04T07:14:43;25.50;45.70
27823;DHT22;29019;47.630;8.262;2022-07-04T07:18:44;25.50;45.80
27823;DHT22;29019;47.630;8.262;2022-07-04T07:22:44;25.50;45.70
27823;DHT22;29019;47.630;8.262;2022-07-04T07:26:45;25.50;45.70
27823;DHT22;29019;47.630;8.262;2022-07-04T07:30:45;25.50;45.70
27823;DHT22;29019;47.630;8.262;2022-07-04T07:34:46;25.50;45.70
27823;DHT22;29019;47.630;8.262;2022-07-04T07:38:46;25.50;45.60
27823;DHT22;29019;47.630;8.262;2022-07-04T07:42:47;25.50;45.60
27823;DHT22;29019;47.630;8.262;2022-07-04T07:46:47;25.50;45.60
27823;DHT22;29019;47.630;8.262;2022-07-04T07:50:48;25.50;45.60
27823;DHT22;29019;47.630;8.262;2022-07-04T07:54:48;25.60;45.70
27823;DHT22;29019;47.630;8.262;2022-07-04T07:58:49;25.60;45.60
27823;DHT22;29019;47.630;8.262;2022-07-04T08:02:50;25.60;45.60
27823;DHT22;29019;47.630;8.262;2022-07-04T08:07:09;25.60;45.60
27823;DHT22;29019;47.630;8.262;2022-07-04T08:11:11;25.60;45.60
27823;DHT22;29019;47.630;8.262;2022-07-04T08:15:11;25.60;45.60
27823;DHT22;29019;47.630;8.262;2022-07-04T08:19:12;25.60;45.50
27823;DHT22;29019;47.630;8.262;2022-07-04T08:23:12;25.60;45.50
27823;DHT22;29019;47.630;8.262;2022-07-04T08:27:13;25.60;45.60
27823;DHT22;29019;47.630;8.262;2022-07-04T08:31:13;25.60;45.50
27823;DHT22;29019;47.630;8.262;2022-07-04T08:35:14;25.60;45.50
27823;DHT22;29019;47.630;8.262;2022-07-04T08:39:14;25.70;45.60
27823;DHT22;29019;47.630;8.262;2022-07-04T08:43:15;25.70;45.60
27823;DHT22;29019;47.630;8.262;2022-07-04T08:47:19;25.70;45.60
27823;DHT22;29019;47.630;8.262;2022-07-04T08:52:05;25.70;45.60
27823;DHT22;29019;47.630;8.262;2022-07-04T08:55:40;25.70;45.60
27823;DHT22;29019;47.630;8.262;2022-07-04T09:00:00;25.70;45.60
27823;DHT22;29019;47.630;8.262;2022-07-04T09:04:01;25.80;45.70
27823;DHT22;29019;47.630;8.262;2022-07-04T09:08:02;25.80;45.70
27823;DHT22;29019;47.630;8.262;2022-07-04T09:12:03;25.80;45.70
27823;DHT22;29019;47.630;8.262;2022-07-04T09:16:04;25.80;45.60
27823;DHT22;29019;47.630;8.262;2022-07-04T09:24:21;25.80;45.70
27823;DHT22;29019;47.630;8.262;2022-07-04T09:28:38;25.90;45.70
27823;DHT22;29019;47.630;8.262;2022-07-04T09:32:49;25.90;45.60
27823;DHT22;29019;47.630;8.262;2022-07-04T09:36:54;25.90;45.60
27823;DHT22;29019;47.630;8.262;2022-07-04T09:40:57;25.90;45.60
27823;DHT22;29019;47.630;8.262;2022-07-04T09:45:19;25.90;45.60
27823;DHT22;29019;47.630;8.262;2022-07-04T09:49:23;25.90;45.50
27823;DHT22;29019;47.630;8.262;2022-07-04T09:53:26;25.90;45.50
27823;DHT22;29019;47.630;8.262;2022-07-04T09:57:28;26.00;45.60
27823;DHT22;29019;47.630;8.262;2022-07-04T10:01:29;26.00;45.60
27823;DHT22;29019;47.630;8.262;2022-07-04T10:05:29;26.00;45.50
27823;DHT22;29019;47.630;8.262;2022-07-04T10:09:30;26.00;45.50
27823;DHT22;29019;47.630;8.262;2022-07-04T10:13:30;26.10;45.60
27823;DHT22;29019;47.630;8.262;2022-07-04T10:17:31;26.10;45.50
27823;DHT22;29019;47.630;8.262;2022-07-04T10:21:32;26.10;45.50
27823;DHT22;29019;47.630;8.262;2022-07-04T10:25:32;26.10;45.40
27823;DHT22;29019;47.630;8.262;2022-07-04T10:29:33;26.10;45.50
27823;DHT22;29019;47.630;8.262;2022-07-04T10:33:33;26.10;45.50
27823;DHT22;29019;47.630;8.262;2022-07-04T10:41:57;26.20;45.50
27823;DHT22;29019;47.630;8.262;2022-07-04T10:50:06;26.20;45.50
27823;DHT22;29019;47.630;8.262;2022-07-04T10:58:07;26.20;45.50
27823;DHT22;29019;47.630;8.262;2022-07-04T11:06:43;26.20;45.40
27823;DHT22;29019;47.630;8.262;2022-07-04T11:10:29;26.20;45.40
27823;DHT22;29019;47.630;8.262;2022-07-04T11:14:31;26.30;45.50
27823;DHT22;29019;47.630;8.262;2022-07-04T11:18:37;26.30;45.50
27823;DHT22;29019;47.630;8.262;2022-07-04T11:22:38;26.30;45.50
27823;DHT22;29019;47.630;8.262;2022-07-04T11:26:38;26.30;45.60
27823;DHT22;29019;47.630;8.262;2022-07-04T11:30:40;26.30;45.50
27823;DHT22;29019;47.630;8.262;2022-07-04T11:34:47;26.30;45.50
27823;DHT22;29019;47.630;8.262;2022-07-04T11:43:07;26.40;45.40
27823;DHT22;29019;47.630;8.262;2022-07-04T11:47:36;26.50;45.40
27823;DHT22;29019;47.630;8.262;2022-07-04T11:51:47;26.50;45.40
27823;DHT22;29019;47.630;8.262;2022-07-04T11:55:54;26.50;45.50
27823;DHT22;29019;47.630;8.262;2022-07-04T11:59:59;26.50;45.50
27823;DHT22;29019;47.630;8.262;2022-07-04T12:04:10;26.50;45.40
27823;DHT22;29019;47.630;8.262;2022-07-04T12:08:11;26.50;45.90
27823;DHT22;29019;47.630;8.262;2022-07-04T12:12:12;26.50;45.40
27823;DHT22;29019;47.630;8.262;2022-07-04T12:16:12;26.50;45.40
27823;DHT22;29019;47.630;8.262;2022-07-04T12:20:16;26.50;45.40
27823;DHT22;29019;47.630;8.262;2022-07-04T12:24:20;26.50;45.40
27823;DHT22;29019;47.630;8.262;2022-07-04T12:28:20;26.50;45.40
27823;DHT22;29019;47.630;8.262;2022-07-04T12:32:23;26.50;45.40
27823;DHT22;29019;47.630;8.262;2022-07-04T12:36:24;26.50;45.40
27823;DHT22;29019;47.630;8.262;2022-07-04T12:40:24;26.50;45.40
27823;DHT22;29019;47.630;8.262;2022-07-04T12:44:24;26.50;45.40
27823;DHT22;29019;47.630;8.262;2022-07-04T12:48:26;26.50;45.40
27823;DHT22;29019;47.630;8.262;2022-07-04T12:52:27;26.60;45.40
27823;DHT22;29019;47.630;8.262;2022-07-04T13:00:29;26.60;45.30
27823;DHT22;29019;47.630;8.262;2022-07-04T13:04:30;26.60;45.30
27823;DHT22;29019;47.630;8.262;2022-07-04T13:08:31;26.70;45.30
27823;DHT22;29019;47.630;8.262;2022-07-04T13:12:32;26.70;45.30
27823;DHT22;29019;47.630;8.262;2022-07-04T13:16:32;26.80;45.30
27823;DHT22;29019;47.630;8.262;2022-07-04T13:20:33;26.70;45.30
27823;DHT22;29019;47.630;8.262;2022-07-04T13:24:33;26.70;45.30
27823;DHT22;29019;47.630;8.262;2022-07-04T13:28:34;26.70;45.20
27823;DHT22;29019;47.630;8.262;2022-07-04T13:32:35;26.70;45.30
27823;DHT22;29019;47.630;8.262;2022-07-04T13:36:36;26.70;45.30
27823;DHT22;29019;47.630;8.262;2022-07-04T13:40:36;26.70;45.30
27823;DHT22;29019;47.630;8.262;2022-07-04T13:44:37;26.70;45.40
27823;DHT22;29019;47.630;8.262;2022-07-04T13:48:37;26.70;45.40
27823;DHT22;29019;47.630;8.262;2022-07-04T13:52:38;26.60;45.40
27823;DHT22;29019;47.630;8.262;2022-07-04T13:56:38;26.60;45.40
27823;DHT22;29019;47.630;8.262;2022-07-04T14:00:39;26.60;45.40
27823;DHT22;29019;47.630;8.262;2022-07-04T14:04:41;26.50;45.30
27823;DHT22;29019;47.630;8.262;2022-07-04T14:08:41;26.60;45.40
27823;DHT22;29019;47.630;8.262;2022-07-04T14:12:42;26.50;45.30
27823;DHT22;29019;47.630;8.262;2022-07-04T14:16:42;26.50;45.40
27823;DHT22;29019;47.630;8.262;2022-07-04T14:20:43;26.50;45.40
27823;DHT22;29019;47.630;8.262;2022-07-04T14:24:43;26.50;45.40
27823;DHT22;29019;47.630;8.262;2022-07-04T14:28:44;26.50;45.50
27823;DHT22;29019;47.630;8.262;2022-07-04T14:32:44;26.50;45.50
27823;DHT22;29019;47.630;8.262;2022-07-04T14:36:45;26.40;45.50
27823;DHT22;29019;47.630;8.262;2022-07-04T14:40:45;26.40;45.60
27823;DHT22;29019;47.630;8.262;2022-07-04T14:44:48;26.40;45.60
27823;DHT22;29019;47.630;8.262;2022-07-04T14:48:49;26.40;45.60
27823;DHT22;29019;47.630;8.262;2022-07-04T14:52:49;26.40;45.60
27823;DHT22;29019;47.630;8.262;2022-07-04T14:56:50;26.40;45.60
27823;DHT22;29019;47.630;8.262;2022-07-04T15:00:51;26.40;45.70
27823;DHT22;29019;47.630;8.262;2022-07-04T15:04:51;26.40;45.70
27823;DHT22;29019;47.630;8.262;2022-07-04T15:08:52;26.40;45.60
27823;DHT22;29019;47.630;8.262;2022-07-04T15:12:53;26.40;45.60
27823;DHT22;29019;47.630;8.262;2022-07-04T15:16:53;26.40;45.60
27823;DHT22;29019;47.630;8.262;2022-07-04T15:20:54;26.40;45.60
27823;DHT22;29019;47.630;8.262;2022-07-04T15:25:13;26.40;45.60
27823;DHT22;29019;47.630;8.262;2022-07-04T15:29:13;26.50;45.60
27823;DHT22;29019;47.630;8.262;2022-07-04T15:33:14;26.40;45.60
27823;DHT22;29019;47.630;8.262;2022-07-04T15:37:15;26.50;45.60
27823;DHT22;29019;47.630;8.262;2022-07-04T15:41:16;26.50;45.60
27823;DHT22;29019;47.630;8.262;2022-07-04T15:45:16;26.50;45.60
27823;DHT22;29019;47.630;8.262;2022-07-04T15:49:17;26.50;45.60
27823;DHT22;29019;47.630;8.262;2022-07-04T15:53:17;26.50;45.60
27823;DHT22;29019;47.630;8.262;2022-07-04T15:57:18;26.50;45.60
27823;DHT22;29019;47.630;8.262;2022-07-04T16:01:18;26.50;45.60
27823;DHT22;29019;47.630;8.262;2022-07-04T16:05:19;26.50;45.60
27823;DHT22;29019;47.630;8.262;2022-07-04T16:09:19;26.50;45.60
27823;DHT22;29019;47.630;8.262;2022-07-04T16:13:20;26.50;45.60
27823;DHT22;29019;47.630;8.262;2022-07-04T16:17:20;26.40;45.60
27823;DHT22;29019;47.630;8.262;2022-07-04T16:21:21;26.40;45.60
27823;DHT22;29019;47.630;8.262;2022-07-04T16:25:21;26.40;45.60
27823;DHT22;29019;47.630;8.262;2022-07-04T16:29:22;26.40;45.60
27823;DHT22;29019;47.630;8.262;2022-07-04T16:33:23;26.40;45.60
27823;DHT22;29019;47.630;8.262;2022-07-04T16:37:23;26.40;45.60
27823;DHT22;29019;47.630;8.262;2022-07-04T16:41:24;26.40;45.60
27823;DHT22;29019;47.630;8.262;2022-07-04T16:45:24;26.40;45.60
27823;DHT22;29019;47.630;8.262;2022-07-04T16:49:25;26.40;45.60
27823;DHT22;29019;47.630;8.262;2022-07-04T16:53:25;26.40;45.60
27823;DHT22;29019;47.630;8.262;2022-07-04T16:57:26;26.40;45.60
27823;DHT22;29019;47.630;8.262;2022-07-04T17:01:26;26.40;45.70
27823;DHT22;29019;47.630;8.262;2022-07-04T17:05:27;26.40;45.70
27823;DHT22;29019;47.630;8.262;2022-07-04T17:09:27;26.30;45.60
27823;DHT22;29019;47.630;8.262;2022-07-04T17:13:27;26.30;45.60
27823;DHT22;29019;47.630;8.262;2022-07-04T17:17:28;26.30;45.60
27823;DHT22;29019;47.630;8.262;2022-07-04T17:21:28;26.30;45.60
27823;DHT22;29019;47.630;8.262;2022-07-04T17:25:29;26.30;45.60
27823;DHT22;29019;47.630;8.262;2022-07-04T17:29:29;26.30;45.70
27823;DHT22;29019;47.630;8.262;2022-07-04T17:33:30;26.30;45.60
27823;DHT22;29019;47.630;8.262;2022-07-04T17:37:30;26.30;45.60
27823;DHT22;29019;47.630;8.262;2022-07-04T17:41:31;26.30;45.60
27823;DHT22;29019;47.630;8.262;2022-07-04T17:45:40;26.30;45.60
27823;DHT22;29019;47.630;8.262;2022-07-04T17:49:41;26.30;45.50
27823;DHT22;29019;47.630;8.262;2022-07-04T17:53:41;26.30;45.60
27823;DHT22;29019;47.630;8.262;2022-07-04T17:57:42;26.30;45.60
27823;DHT22;29019;47.630;8.262;2022-07-04T18:01:42;26.30;45.70
27823;DHT22;29019;47.630;8.262;2022-07-04T18:05:43;26.30;45.60
27823;DHT22;29019;47.630;8.262;2022-07-04T18:09:43;26.30;45.70
27823;DHT22;29019;47.630;8.262;2022-07-04T18:13:44;26.30;45.70
27823;DHT22;29019;47.630;8.262;2022-07-04T18:17:45;26.30;45.70
27823;DHT22;29019;47.630;8.262;2022-07-04T18:21:45;26.30;45.60
27823;DHT22;29019;47.630;8.262;2022-07-04T18:25:46;26.30;45.70
27823;DHT22;29019;47.630;8.262;2022-07-04T18:29:46;26.30;45.70
27823;DHT22;29019;47.630;8.262;2022-07-04T18:33:47;26.30;45.80
27823;DHT22;29019;47.630;8.262;2022-07-04T18:37:47;26.30;45.70
27823;DHT22;29019;47.630;8.262;2022-07-04T18:41:48;26.30;45.70
27823;DHT22;29019;47.630;8.262;2022-07-04T18:46:07;26.20;45.70
27823;DHT22;29019;47.630;8.262;2022-07-04T18:50:07;26.30;45.80
27823;DHT22;29019;47.630;8.262;2022-07-04T18:54:08;26.20;45.70
27823;DHT22;29019;47.630;8.262;2022-07-04T18:58:09;26.20;45.70
27823;DHT22;29019;47.630;8.262;2022-07-04T19:02:09;26.20;45.80
27823;DHT22;29019;47.630;8.262;2022-07-04T19:06:10;26.20;45.70
27823;DHT22;29019;47.630;8.262;2022-07-04T19:10:10;26.20;45.70
27823;DHT22;29019;47.630;8.262;2022-07-04T19:14:11;26.20;45.80
27823;DHT22;29019;47.630;8.262;2022-07-04T19:18:11;26.20;45.80
27823;DHT22;29019;47.630;8.262;2022-07-04T19:22:12;26.20;45.80
27823;DHT22;29019;47.630;8.262;2022-07-04T19:26:13;26.20;45.80
27823;DHT22;29019;47.630;8.262;2022-07-04T19:30:13;26.20;45.80
27823;DHT22;29019;47.630;8.262;2022-07-04T19:34:14;26.20;45.80
27823;DHT22;29019;47.630;8.262;2022-07-04T19:38:14;26.20;45.90
27823;DHT22;29019;47.630;8.262;2022-07-04T19:42:15;26.20;45.80
27823;DHT22;29019;47.630;8.262;2022-07-04T19:46:18;26.20;45.90
27823;DHT22;29019;47.630;8.262;2022-07-04T19:50:20;26.20;45.90
27823;DHT22;29019;47.630;8.262;2022-07-04T19:54:20;26.20;45.90
27823;DHT22;29019;47.630;8.262;2022-07-04T19:58:21;26.10;45.90
27823;DHT22;29019;47.630;8.262;2022-07-04T20:02:22;26.10;45.90
27823;DHT22;29019;47.630;8.262;2022-07-04T20:06:22;26.10;45.90
27823;DHT22;29019;47.630;8.262;2022-07-04T20:10:23;26.10;45.90
27823;DHT22;29019;47.630;8.262;2022-07-04T20:14:23;26.10;45.80
27823;DHT22;29019;47.630;8.262;2022-07-04T20:18:24;26.10;45.90
27823;DHT22;29019;47.630;8.262;2022-07-04T20:22:24;26.10;45.90
27823;DHT22;29019;47.630;8.262;2022-07-04T20:26:25;26.10;45.90
27823;DHT22;29019;47.630;8.262;2022-07-04T20:30:25;26.10;45.90
27823;DHT22;29019;47.630;8.262;2022-07-04T20:34:25;26.10;45.90
27823;DHT22;29019;47.630;8.262;2022-07-04T20:38:31;26.10;45.90
27823;DHT22;29019;47.630;8.262;2022-07-04T20:42:31;26.10;45.90
27823;DHT22;29019;47.630;8.262;2022-07-04T20:46:32;26.10;45.90
27823;DHT22;29019;47.630;8.262;2022-07-04T20:50:33;26.10;46.00
27823;DHT22;29019;47.630;8.262;2022-07-04T20:54:33;26.00;45.90
27823;DHT22;29019;47.630;8.262;2022-07-04T20:58:34;26.00;45.90
27823;DHT22;29019;47.630;8.262;2022-07-04T21:02:34;26.00;45.90
27823;DHT22;29019;47.630;8.262;2022-07-04T21:06:35;26.00;46.00
27823;DHT22;29019;47.630;8.262;2022-07-04T21:10:35;26.00;46.00
27823;DHT22;29019;47.630;8.262;2022-07-04T21:14:35;26.00;46.00
27823;DHT22;29019;47.630;8.262;2022-07-04T21:18:36;26.00;46.00
27823;DHT22;29019;47.630;8.262;2022-07-04T21:22:37;26.00;46.00
27823;DHT22;29019;47.630;8.262;2022-07-04T21:26:38;26.00;46.00
27823;DHT22;29019;47.630;8.262;2022-07-04T21:30:39;25.90;46.00
27823;DHT22;29019;47.630;8.262;2022-07-04T21:34:39;26.00;46.00
27823;DHT22;29019;47.630;8.262;2022-07-04T21:38:39;25.90;46.00
27823;DHT22;29019;47.630;8.262;2022-07-04T21:42:40;25.90;46.00
27823;DHT22;29019;47.630;8.262;2022-07-04T21:46:40;26.00;46.10
27823;DHT22;29019;47.630;8.262;2022-07-04T21:50:41;25.90;46.00
27823;DHT22;29019;47.630;8.262;2022-07-04T21:54:41;25.90;46.00
27823;DHT22;29019;47.630;8.262;2022-07-04T21:58:42;25.90;46.10
27823;DHT22;29019;47.630;8.262;2022-07-04T22:02:42;26.00;46.10
27823;DHT22;29019;47.630;8.262;2022-07-04T22:06:43;25.90;46.10
27823;DHT22;29019;47.630;8.262;2022-07-04T22:10:43;25.90;46.10
27823;DHT22;29019;47.630;8.262;2022-07-04T22:14:44;25.90;46.10
27823;DHT22;29019;47.630;8.262;2022-07-04T22:18:44;25.90;46.10
27823;DHT22;29019;47.630;8.262;2022-07-04T22:22:45;25.90;46.10
27823;DHT22;29019;47.630;8.262;2022-07-04T22:26:45;25.90;46.10
27823;DHT22;29019;47.630;8.262;2022-07-04T22:30:46;25.90;46.10
27823;DHT22;29019;47.630;8.262;2022-07-04T22:34:46;25.90;46.10
27823;DHT22;29019;47.630;8.262;2022-07-04T22:38:47;25.80;46.10
27823;DHT22;29019;47.630;8.262;2022-07-04T22:42:47;25.90;46.10
27823;DHT22;29019;47.630;8.262;2022-07-04T22:46:48;25.80;46.10
27823;DHT22;29019;47.630;8.262;2022-07-04T22:50:49;25.90;46.20
27823;DHT22;29019;47.630;8.262;2022-07-04T22:55:09;25.80;46.10
27823;DHT22;29019;47.630;8.262;2022-07-04T22:59:10;25.80;46.20
27823;DHT22;29019;47.630;8.262;2022-07-04T23:03:10;25.80;46.20
27823;DHT22;29019;47.630;8.262;2022-07-04T23:07:11;25.80;46.10
27823;DHT22;29019;47.630;8.262;2022-07-04T23:11:12;25.80;46.20
27823;DHT22;29019;47.630;8.262;2022-07-04T23:15:12;25.80;46.20
27823;DHT22;29019;47.630;8.262;2022-07-04T23:19:13;25.80;46.20
27823;DHT22;29019;47.630;8.262;2022-07-04T23:23:13;25.80;46.20
27823;DHT22;29019;47.630;8.262;2022-07-04T23:27:13;25.80;46.20
27823;DHT22;29019;47.630;8.262;2022-07-04T23:31:15;25.80;46.20
27823;DHT22;29019;47.630;8.262;2022-07-04T23:35:15;25.80;46.20
27823;DHT22;29019;47.630;8.262;2022-07-04T23:39:16;25.70;46.20
27823;DHT22;29019;47.630;8.262;2022-07-04T23:43:17;25.70;46.20
27823;DHT22;29019;47.630;8.262;2022-07-04T23:47:17;25.80;46.30
27823;DHT22;29019;47.630;8.262;2022-07-04T23:51:18;25.70;46.30
27823;DHT22;29019;47.630;8.262;2022-07-04T23:55:18;25.70;46.20
27823;DHT22;29019;47.630;8.262;2022-07-04T23:59:18;25.70;46.20
